createdAt,value
2022-11-12T00:01:44.097Z,99641.00
2022-11-12T00:04:37.431Z,99645.00
2022-11-12T00:07:30.786Z,99647.00
2022-11-12T00:10:24.023Z,99642.00
2022-11-12T00:13:17.438Z,99632.00
2022-11-12T00:16:10.605Z,99631.00
2022-11-12T00:19:04.027Z,99626.00
2022-11-12T00:21:57.450Z,99638.00
2022-11-12T00:24:51.089Z,99635.00
2022-11-12T00:27:44.776Z,99642.00
2022-11-12T00:30:40.802Z,99631.00
2022-11-12T00:33:34.263Z,99630.00
2022-11-12T00:36:27.787Z,99627.00
2022-11-12T00:39:21.262Z,99634.00
2022-11-12T00:42:14.948Z,99634.00
2022-11-12T00:45:09.728Z,99639.00
2022-11-12T00:48:03.055Z,99631.00
2022-11-12T00:51:02.493Z,99639.00
2022-11-12T00:53:56.308Z,99637.00
2022-11-12T00:56:50.026Z,99631.00
2022-11-12T00:59:43.247Z,99626.00
2022-11-12T01:02:42.308Z,99629.00
2022-11-12T01:05:37.713Z,99631.00
2022-11-12T01:08:31.273Z,99629.00
2022-11-12T01:11:28.861Z,99624.00
2022-11-12T01:14:22.142Z,99619.00
2022-11-12T01:17:15.684Z,99630.00
2022-11-12T01:20:09.406Z,99634.00
2022-11-12T01:23:02.774Z,99636.00
2022-11-12T01:25:56.290Z,99634.00
2022-11-12T01:28:49.992Z,99633.00
2022-11-12T01:31:43.562Z,99627.00
2022-11-12T01:34:36.964Z,99622.00
2022-11-12T01:37:30.332Z,99621.00
2022-11-12T01:40:23.728Z,99613.00
2022-11-12T01:43:17.408Z,99615.00
2022-11-12T01:46:27.906Z,99610.00
2022-11-12T01:49:40.892Z,99608.00
2022-11-12T01:52:43.949Z,99601.00
2022-11-12T01:55:38.181Z,99608.00
2022-11-12T01:58:33.343Z,99598.00
2022-11-12T02:01:26.862Z,99596.00
2022-11-12T02:04:21.863Z,99590.00
2022-11-12T02:07:16.485Z,99594.00
2022-11-12T02:10:10.414Z,99592.00
2022-11-12T02:13:22.342Z,99580.00
2022-11-12T02:16:16.038Z,99588.00
2022-11-12T02:19:16.016Z,99590.00
2022-11-12T02:22:09.258Z,99581.00
2022-11-12T02:25:02.795Z,99582.00
2022-11-12T02:27:58.532Z,99583.00
2022-11-12T02:30:52.312Z,99578.00
2022-11-12T02:33:45.837Z,99573.00
2022-11-12T02:36:39.564Z,99571.00
2022-11-12T02:39:33.490Z,99576.00
2022-11-12T02:42:27.157Z,99563.00
2022-11-12T02:45:21.009Z,99569.00
2022-11-12T02:48:19.022Z,99574.00
2022-11-12T02:51:13.327Z,99583.00
2022-11-12T02:54:06.657Z,99579.00
2022-11-12T02:56:59.932Z,99583.00
2022-11-12T02:59:53.423Z,99578.00
2022-11-12T03:02:58.921Z,99579.00
2022-11-12T03:06:01.133Z,99586.00
2022-11-12T03:08:54.556Z,99581.00
2022-11-12T03:11:48.315Z,99581.00
2022-11-12T03:14:41.921Z,99595.00
2022-11-12T03:17:35.552Z,99589.00
2022-11-12T03:20:29.972Z,99593.00
2022-11-12T03:23:23.595Z,99590.00
2022-11-12T03:26:17.049Z,99583.00
2022-11-12T03:29:10.246Z,99581.00
2022-11-12T03:32:04.049Z,99585.00
2022-11-12T03:34:57.394Z,99585.00
2022-11-12T03:37:51.111Z,99577.00
2022-11-12T03:40:44.417Z,99584.00
2022-11-12T03:43:37.948Z,99569.00
2022-11-12T03:46:31.642Z,99575.00
2022-11-12T03:49:25.002Z,99566.00
2022-11-12T03:52:18.492Z,99574.00
2022-11-12T03:55:13.631Z,99588.00
2022-11-12T03:58:07.313Z,99593.00
2022-11-12T04:01:01.964Z,99589.00
2022-11-12T04:03:55.756Z,99584.00
2022-11-12T04:07:07.666Z,99588.00
2022-11-12T04:10:01.202Z,99588.00
2022-11-12T04:13:13.847Z,99582.00
2022-11-12T04:16:33.417Z,99586.00
2022-11-12T04:19:45.527Z,99591.00
2022-11-12T04:22:39.179Z,99585.00
2022-11-12T04:25:51.016Z,99585.00
2022-11-12T04:29:04.759Z,99587.00
2022-11-12T04:31:58.162Z,99581.00
2022-11-12T04:34:52.843Z,99573.00
2022-11-12T04:37:46.482Z,99583.00
2022-11-12T04:40:58.527Z,99573.00
2022-11-12T04:44:10.400Z,99577.00
2022-11-12T04:47:04.031Z,99557.00
2022-11-12T04:49:58.331Z,99569.00
2022-11-12T04:52:51.904Z,99564.00
2022-11-12T04:55:45.496Z,99572.00
2022-11-12T04:58:39.021Z,99574.00
2022-11-12T05:01:32.522Z,99584.00
2022-11-12T05:04:28.746Z,99586.00
2022-11-12T05:07:22.196Z,99581.00
2022-11-12T05:10:16.398Z,99595.00
2022-11-12T05:13:09.613Z,99588.00
2022-11-12T05:16:03.412Z,99590.00
2022-11-12T05:18:56.663Z,99587.00
2022-11-12T05:22:05.194Z,99585.00
2022-11-12T05:24:58.549Z,99583.00
2022-11-12T05:27:52.235Z,99576.00
2022-11-12T05:30:48.318Z,99575.00
2022-11-12T05:33:41.610Z,99579.00
2022-11-12T05:36:35.274Z,99583.00
2022-11-12T05:39:29.000Z,99584.00
2022-11-12T05:42:22.560Z,99590.00
2022-11-12T05:45:15.797Z,99588.00
2022-11-12T05:48:09.343Z,99587.00
2022-11-12T05:51:18.270Z,99583.00
2022-11-12T05:54:12.687Z,99590.00
2022-11-12T05:57:06.164Z,99593.00
2022-11-12T05:59:59.839Z,99590.00
2022-11-12T06:02:58.585Z,99605.00
2022-11-12T06:05:52.734Z,99602.00
2022-11-12T06:08:45.974Z,99604.00
2022-11-12T06:11:39.777Z,99613.00
2022-11-12T06:14:33.232Z,99606.00
2022-11-12T06:17:26.549Z,99606.00
2022-11-12T06:20:22.138Z,99616.00
2022-11-12T06:23:15.743Z,99610.00
2022-11-12T06:26:09.224Z,99616.00
2022-11-12T06:29:02.787Z,99614.00
2022-11-12T06:31:56.279Z,99614.00
2022-11-12T06:34:50.724Z,99621.00
2022-11-12T06:37:47.623Z,99606.00
2022-11-12T06:40:41.808Z,99616.00
2022-11-12T06:43:36.082Z,99614.00
2022-11-12T06:46:29.634Z,99621.00
2022-11-12T06:49:23.228Z,99620.00
2022-11-12T06:52:17.454Z,99609.00
2022-11-12T06:55:10.858Z,99598.00
2022-11-12T06:58:04.439Z,99609.00
2022-11-12T07:00:58.139Z,99609.00
2022-11-12T07:03:53.961Z,99607.00
2022-11-12T07:06:47.248Z,99606.00
2022-11-12T07:09:40.540Z,99613.00
2022-11-12T07:12:34.031Z,99609.00
2022-11-12T07:15:27.588Z,99604.00
2022-11-12T07:18:21.071Z,99611.00
2022-11-12T07:21:20.879Z,99603.00
2022-11-12T07:24:14.126Z,99611.00
2022-11-12T07:27:07.704Z,99602.00
2022-11-12T07:30:01.344Z,99603.00
2022-11-12T07:32:58.121Z,99609.00
2022-11-12T07:36:02.648Z,99604.00
2022-11-12T07:38:56.830Z,99601.00
2022-11-12T07:41:51.536Z,99594.00
2022-11-12T07:44:44.972Z,99603.00
2022-11-12T07:47:38.562Z,99596.00
2022-11-12T07:50:32.111Z,99602.00
2022-11-12T07:53:25.965Z,99602.00
2022-11-12T07:56:22.177Z,99598.00
2022-11-12T07:59:15.526Z,99588.00
2022-11-12T08:02:09.823Z,99601.00
2022-11-12T08:05:03.022Z,99601.00
2022-11-12T08:07:57.189Z,99604.00
2022-11-12T08:10:57.743Z,99596.00
2022-11-12T08:13:51.945Z,99607.00
2022-11-12T08:16:46.680Z,99612.00
2022-11-12T08:19:39.934Z,99609.00
2022-11-12T08:22:33.564Z,99611.00
2022-11-12T08:25:27.206Z,99609.00
2022-11-12T08:28:20.540Z,99614.00
2022-11-12T08:31:17.895Z,99608.00
2022-11-12T08:34:18.552Z,99605.00
2022-11-12T08:37:15.141Z,99606.00
2022-11-12T08:40:09.920Z,99608.00
2022-11-12T08:43:06.838Z,99599.00
2022-11-12T08:46:02.008Z,99596.00
2022-11-12T08:48:55.902Z,99610.00
2022-11-12T08:51:49.476Z,99603.00
2022-11-12T08:54:43.341Z,99606.00
2022-11-12T08:57:44.560Z,99603.00
2022-11-12T09:00:43.555Z,99607.00
2022-11-12T09:03:37.465Z,99607.00
2022-11-12T09:06:31.227Z,99610.00
2022-11-12T09:09:24.836Z,99607.00
2022-11-12T09:12:19.884Z,99603.00
2022-11-12T09:18:28.012Z,99592.00
2022-11-12T09:21:24.792Z,99597.00
2022-11-12T09:24:19.249Z,99589.00
2022-11-12T09:27:13.777Z,99586.00
2022-11-12T09:30:08.301Z,99571.00
2022-11-12T09:33:01.842Z,99574.00
2022-11-12T09:35:56.199Z,99577.00
2022-11-12T09:38:49.525Z,99575.00
2022-11-12T09:41:43.112Z,99585.00
2022-11-12T09:44:40.622Z,99574.00
2022-11-12T09:47:45.403Z,99573.00
2022-11-12T09:50:58.179Z,99573.00
2022-11-12T09:54:17.726Z,99572.00
2022-11-12T09:57:14.628Z,99580.00
2022-11-12T10:00:26.356Z,99580.00
2022-11-12T10:03:55.698Z,99585.00
2022-11-12T10:07:21.086Z,99580.00
2022-11-12T10:10:34.364Z,99584.00
2022-11-12T10:14:25.631Z,99575.00
2022-11-12T10:17:46.327Z,99568.00
2022-11-12T10:20:59.696Z,99575.00
2022-11-12T10:23:53.907Z,99574.00
2022-11-12T10:26:48.711Z,99567.00
2022-11-12T10:30:01.910Z,99556.00
2022-11-12T10:32:55.553Z,99557.00
2022-11-12T10:35:49.339Z,99550.00
2022-11-12T10:38:44.164Z,99555.00
2022-11-12T10:41:37.444Z,99549.00
2022-11-12T10:44:31.008Z,99549.00
2022-11-12T10:47:38.845Z,99553.00
2022-11-12T10:50:40.803Z,99557.00
2022-11-12T10:53:39.722Z,99545.00
2022-11-12T10:56:33.555Z,99543.00
2022-11-12T10:59:26.845Z,99548.00
2022-11-12T11:02:20.547Z,99546.00
2022-11-12T11:05:29.323Z,99547.00
2022-11-12T11:09:11.521Z,99537.00
2022-11-12T11:12:31.111Z,99536.00
2022-11-12T11:15:24.652Z,99537.00
2022-11-12T11:18:18.133Z,99529.00
2022-11-12T11:21:30.257Z,99522.00
2022-11-12T11:24:56.484Z,99521.00
2022-11-12T11:28:11.458Z,99521.00
2022-11-12T11:31:21.513Z,99520.00
2022-11-12T11:34:36.100Z,99513.00
2022-11-12T11:37:32.857Z,99520.00
2022-11-12T11:40:37.399Z,99516.00
2022-11-12T11:43:47.246Z,99521.00
2022-11-12T11:47:08.205Z,99516.00
2022-11-12T11:50:20.488Z,99509.00
2022-11-12T11:53:21.780Z,99510.00
2022-11-12T11:56:26.458Z,99506.00
2022-11-12T12:00:04.895Z,99511.00
2022-11-12T12:03:17.713Z,99505.00
2022-11-12T12:06:20.611Z,99501.00
2022-11-12T12:09:33.309Z,99494.00
2022-11-12T12:12:40.915Z,99486.00
2022-11-12T12:16:26.798Z,99486.00
2022-11-12T12:19:47.037Z,99488.00
2022-11-12T12:22:59.386Z,99488.00
2022-11-12T12:26:00.205Z,99478.00
2022-11-12T12:29:04.198Z,99482.00
2022-11-12T12:32:29.603Z,99472.00
2022-11-12T12:35:38.691Z,99485.00
2022-11-12T12:39:10.851Z,99473.00
2022-11-12T12:42:22.812Z,99469.00
2022-11-12T12:45:43.553Z,99470.00
2022-11-12T12:48:44.463Z,99475.00
2022-11-12T12:51:38.227Z,99468.00
2022-11-12T12:54:34.917Z,99456.00
2022-11-12T12:57:39.545Z,99459.00
2022-11-12T13:00:39.877Z,99448.00
2022-11-12T13:03:53.655Z,99452.00
2022-11-12T13:06:46.994Z,99448.00
2022-11-12T13:09:40.580Z,99447.00
2022-11-12T13:13:18.211Z,99450.00
2022-11-12T13:16:49.546Z,99442.00
2022-11-12T13:19:57.790Z,99438.00
2022-11-12T13:22:51.692Z,99436.00
2022-11-12T13:25:45.310Z,99434.00
2022-11-12T13:29:29.562Z,99426.00
2022-11-12T13:32:32.506Z,99439.00
2022-11-12T13:35:28.356Z,99427.00
2022-11-12T13:38:21.898Z,99428.00
2022-11-12T13:41:40.318Z,99434.00
2022-11-12T13:44:37.579Z,99436.00
2022-11-12T13:47:32.230Z,99434.00
2022-11-12T13:50:26.276Z,99423.00
2022-11-12T13:53:25.633Z,99429.00
2022-11-12T13:56:39.465Z,99426.00
2022-11-12T13:59:32.963Z,99419.00
2022-11-12T14:02:27.360Z,99423.00
2022-11-12T14:05:26.191Z,99421.00
2022-11-12T14:08:39.338Z,99411.00
2022-11-12T14:11:51.426Z,99414.00
2022-11-12T14:15:15.469Z,99416.00
2022-11-12T14:18:36.091Z,99414.00
2022-11-12T14:21:29.970Z,99414.00
2022-11-12T14:24:23.655Z,99414.00
2022-11-12T14:27:37.634Z,99413.00
2022-11-12T14:30:32.111Z,99403.00
2022-11-12T14:33:28.621Z,99400.00
2022-11-12T14:36:23.546Z,99403.00
2022-11-12T14:39:17.331Z,99400.00
2022-11-12T14:42:14.765Z,99398.00
2022-11-12T14:45:17.135Z,99390.00
2022-11-12T14:48:11.249Z,99392.00
2022-11-12T14:51:10.115Z,99392.00
2022-11-12T14:54:11.240Z,99396.00
2022-11-12T14:57:05.296Z,99389.00
2022-11-12T14:59:58.785Z,99380.00
2022-11-12T15:02:59.315Z,99385.00
2022-11-12T15:06:07.878Z,99392.00
2022-11-12T15:09:01.408Z,99393.00
2022-11-12T15:11:55.147Z,99394.00
2022-11-12T15:14:48.705Z,99387.00
2022-11-12T15:17:42.519Z,99386.00
2022-11-12T15:20:35.867Z,99376.00
2022-11-12T15:23:29.865Z,99369.00
2022-11-12T15:26:34.305Z,99371.00
2022-11-12T15:29:29.112Z,99367.00
2022-11-12T15:32:22.894Z,99355.00
2022-11-12T15:35:32.456Z,99367.00
2022-11-12T15:38:31.648Z,99363.00
2022-11-12T15:41:30.728Z,99361.00
2022-11-12T15:44:25.008Z,99364.00
2022-11-12T15:47:22.426Z,99353.00
2022-11-12T15:50:19.473Z,99347.00
2022-11-12T15:53:14.140Z,99349.00
2022-11-12T15:56:17.947Z,99345.00
2022-11-12T15:59:17.469Z,99344.00
2022-11-12T16:02:15.055Z,99339.00
2022-11-12T16:05:17.973Z,99337.00
2022-11-12T16:08:12.281Z,99344.00
2022-11-12T16:11:26.117Z,99348.00
2022-11-12T16:14:24.638Z,99357.00
2022-11-12T16:17:18.644Z,99356.00
2022-11-12T16:20:15.816Z,99358.00
2022-11-12T16:23:09.648Z,99356.00
2022-11-12T16:26:07.910Z,99343.00
2022-11-12T16:29:01.284Z,99346.00
2022-11-12T16:31:54.500Z,99347.00
2022-11-12T16:34:48.097Z,99349.00
2022-11-12T16:37:43.724Z,99344.00
2022-11-12T16:40:38.389Z,99335.00
2022-11-12T16:43:31.670Z,99331.00
2022-11-12T16:46:30.583Z,99330.00
2022-11-12T16:49:24.837Z,99339.00
2022-11-12T16:52:18.960Z,99335.00
2022-11-12T16:55:12.729Z,99332.00
2022-11-12T16:58:06.408Z,99337.00
2022-11-12T17:01:00.101Z,99336.00
2022-11-12T17:03:55.685Z,99340.00
2022-11-12T17:06:49.034Z,99326.00
2022-11-12T17:09:42.915Z,99333.00
2022-11-12T17:12:36.671Z,99331.00
2022-11-12T17:15:30.344Z,99322.00
2022-11-12T17:18:24.284Z,99327.00
2022-11-12T17:21:19.307Z,99329.00
2022-11-12T17:24:12.899Z,99327.00
2022-11-12T17:27:06.032Z,99319.00
2022-11-12T17:29:59.513Z,99326.00
2022-11-12T17:32:53.081Z,99327.00
2022-11-12T17:35:46.668Z,99327.00
2022-11-12T17:38:41.263Z,99320.00
2022-11-12T17:41:34.620Z,99320.00
2022-11-12T17:44:28.170Z,99316.00
2022-11-12T17:47:21.629Z,99313.00
2022-11-12T17:50:15.468Z,99306.00
2022-11-12T17:53:08.724Z,99300.00
2022-11-12T17:56:02.903Z,99305.00
2022-11-12T17:58:56.576Z,99297.00
2022-11-12T18:01:50.672Z,99298.00
2022-11-12T18:04:44.300Z,99298.00
2022-11-12T18:07:37.913Z,99299.00
2022-11-12T18:10:31.430Z,99299.00
2022-11-12T18:13:26.732Z,99300.00
2022-11-12T18:16:27.327Z,99297.00
2022-11-12T18:19:21.167Z,99306.00
2022-11-12T18:22:15.430Z,99319.00
2022-11-12T18:25:09.328Z,99300.00
2022-11-12T18:28:02.744Z,99309.00
2022-11-12T18:31:05.069Z,99300.00
2022-11-12T18:33:58.668Z,99310.00
2022-11-12T18:36:52.123Z,99298.00
2022-11-12T18:39:45.555Z,99286.00
2022-11-12T18:42:39.106Z,99287.00
2022-11-12T18:45:32.720Z,99285.00
2022-11-12T18:48:28.736Z,99278.00
2022-11-12T18:51:22.199Z,99271.00
2022-11-12T18:54:16.181Z,99276.00
2022-11-12T18:57:09.589Z,99277.00
2022-11-12T19:00:03.995Z,99285.00
2022-11-12T19:02:57.517Z,99280.00
2022-11-12T19:05:59.291Z,99289.00
2022-11-12T19:08:58.215Z,99280.00
2022-11-12T19:11:51.781Z,99282.00
2022-11-12T19:14:45.426Z,99269.00
2022-11-12T19:17:38.793Z,99271.00
2022-11-12T19:20:32.369Z,99267.00
2022-11-12T19:23:27.726Z,99268.00
2022-11-12T19:26:22.980Z,99266.00
2022-11-12T19:29:17.285Z,99271.00
2022-11-12T19:32:10.597Z,99272.00
2022-11-12T19:35:04.658Z,99261.00
2022-11-12T19:37:58.185Z,99270.00
2022-11-12T19:40:51.757Z,99259.00
2022-11-12T19:43:44.947Z,99264.00
2022-11-12T19:46:38.057Z,99257.00
2022-11-12T19:49:31.485Z,99255.00
2022-11-12T19:52:26.116Z,99267.00
2022-11-12T19:55:19.385Z,99265.00
2022-11-12T19:58:12.980Z,99267.00
2022-11-12T20:01:13.416Z,99263.00
2022-11-12T20:04:07.006Z,99264.00
2022-11-12T20:07:00.286Z,99265.00
2022-11-12T20:09:59.558Z,99261.00
2022-11-12T20:12:54.814Z,99254.00
2022-11-12T20:15:48.201Z,99252.00
2022-11-12T20:18:41.583Z,99252.00
2022-11-12T20:21:34.823Z,99253.00
2022-11-12T20:24:28.353Z,99242.00
2022-11-12T20:27:22.101Z,99252.00
2022-11-12T20:30:15.372Z,99239.00
2022-11-12T20:33:08.986Z,99240.00
2022-11-12T20:36:12.375Z,99238.00
2022-11-12T20:39:06.117Z,99237.00
2022-11-12T20:42:00.965Z,99232.00
2022-11-12T20:44:54.315Z,99226.00
2022-11-12T20:47:47.770Z,99232.00
2022-11-12T20:50:56.310Z,99229.00
2022-11-12T20:54:00.285Z,99227.00
2022-11-12T20:56:55.977Z,99232.00
2022-11-12T20:59:51.518Z,99234.00
2022-11-12T21:02:45.072Z,99232.00
2022-11-12T21:05:38.546Z,99223.00
2022-11-12T21:08:33.560Z,99213.00
2022-11-12T21:11:27.347Z,99218.00
2022-11-12T21:14:20.819Z,99202.00
2022-11-12T21:17:14.357Z,99220.00
2022-11-12T21:20:08.227Z,99215.00
2022-11-12T21:23:01.552Z,99213.00
2022-11-12T21:25:54.914Z,99211.00
2022-11-12T21:28:55.924Z,99204.00
2022-11-12T21:31:49.159Z,99198.00
2022-11-12T21:34:42.641Z,99195.00
2022-11-12T21:37:36.282Z,99186.00
2022-11-12T21:40:29.797Z,99191.00
2022-11-12T21:43:23.389Z,99192.00
2022-11-12T21:46:27.076Z,99199.00
2022-11-12T21:49:20.407Z,99198.00
2022-11-12T21:52:13.985Z,99204.00
2022-11-12T21:55:08.158Z,99196.00
2022-11-12T21:58:01.872Z,99188.00
2022-11-12T22:00:55.495Z,99189.00
2022-11-12T22:03:51.065Z,99191.00
2022-11-12T22:06:44.597Z,99189.00
2022-11-12T22:09:37.825Z,99176.00
2022-11-12T22:12:31.025Z,99180.00
2022-11-12T22:15:24.749Z,99174.00
2022-11-12T22:18:18.398Z,99175.00
2022-11-12T22:21:17.085Z,99174.00
2022-11-12T22:24:11.793Z,99167.00
2022-11-12T22:27:05.811Z,99165.00
2022-11-12T22:29:59.420Z,99164.00
2022-11-12T22:32:53.043Z,99159.00
2022-11-12T22:35:46.659Z,99152.00
2022-11-12T22:38:43.123Z,99151.00
2022-11-12T22:41:36.439Z,99148.00
2022-11-12T22:44:29.847Z,99144.00
2022-11-12T22:47:22.990Z,99146.00
2022-11-12T22:50:16.653Z,99147.00
2022-11-12T22:53:09.961Z,99143.00
2022-11-12T22:56:15.734Z,99138.00
2022-11-12T22:59:11.138Z,99137.00
2022-11-12T23:02:07.750Z,99134.00
2022-11-12T23:05:01.042Z,99143.00
2022-11-12T23:07:54.239Z,99138.00
2022-11-12T23:10:47.809Z,99141.00
2022-11-12T23:13:41.960Z,99135.00
2022-11-12T23:16:35.833Z,99134.00
2022-11-12T23:19:29.366Z,99132.00
2022-11-12T23:22:23.507Z,99123.00
2022-11-12T23:25:17.326Z,99119.00
2022-11-12T23:28:10.713Z,99115.00
2022-11-12T23:31:09.688Z,99114.00
2022-11-12T23:34:02.990Z,99116.00
2022-11-12T23:36:56.316Z,99116.00
2022-11-12T23:39:49.898Z,99115.00
2022-11-12T23:42:43.441Z,99111.00
2022-11-12T23:45:40.191Z,99115.00
2022-11-12T23:48:33.787Z,99112.00
2022-11-12T23:51:27.899Z,99104.00
2022-11-12T23:54:21.158Z,99096.00
2022-11-12T23:57:14.906Z,99098.00
